createdAt,value
2023-02-22T00:03:58.813Z,8.30
2023-02-22T00:09:03.382Z,9.16
2023-02-22T00:14:06.151Z,8.58
2023-02-22T00:19:30.016Z,8.27
2023-02-22T00:24:55.470Z,8.27
2023-02-22T00:30:22.467Z,9.32
2023-02-22T00:35:46.665Z,8.91
2023-02-22T00:41:12.173Z,9.28
2023-02-22T00:46:36.359Z,9.15
2023-02-22T00:51:59.820Z,9.20
2023-02-22T00:57:25.013Z,9.06
2023-02-22T01:02:50.616Z,8.96
2023-02-22T01:08:16.522Z,7.00
2023-02-22T01:13:40.914Z,7.93
2023-02-22T01:19:03.936Z,8.98
2023-02-22T01:24:26.975Z,8.88
2023-02-22T01:29:52.396Z,8.42
2023-02-22T01:35:19.087Z,8.64
2023-02-22T01:40:44.440Z,8.74
2023-02-22T01:46:21.979Z,8.53
2023-02-22T01:51:47.833Z,8.86
2023-02-22T01:57:16.583Z,8.52
2023-02-22T02:02:45.147Z,8.19
2023-02-22T02:08:22.205Z,9.05
2023-02-22T02:13:45.360Z,8.94
2023-02-22T02:19:15.314Z,8.63
2023-02-22T02:24:54.590Z,7.50
2023-02-22T02:30:44.165Z,7.90
2023-02-22T02:36:16.153Z,8.03
2023-02-22T02:41:45.293Z,8.57
2023-02-22T02:47:15.338Z,8.44
2023-02-22T02:52:42.075Z,8.75
2023-02-22T02:58:05.764Z,8.74
2023-02-22T03:03:41.450Z,8.69
2023-02-22T03:09:13.859Z,7.42
2023-02-22T03:14:43.285Z,8.12
2023-02-22T03:20:14.383Z,8.42
2023-02-22T03:25:44.694Z,7.93
2023-02-22T03:31:11.859Z,8.05
2023-02-22T03:36:43.694Z,8.02
2023-02-22T03:42:15.924Z,8.38
2023-02-22T03:47:42.472Z,8.19
2023-02-22T03:53:07.387Z,8.59
2023-02-22T03:58:36.514Z,7.95
2023-02-22T04:04:01.947Z,8.49
2023-02-22T04:09:25.851Z,7.92
2023-02-22T04:14:50.602Z,8.29
2023-02-22T04:20:14.540Z,8.41
2023-02-22T04:25:45.221Z,8.42
2023-02-22T04:31:11.390Z,7.16
2023-02-22T04:36:34.911Z,8.27
2023-02-22T04:41:58.160Z,7.36
2023-02-22T04:47:22.909Z,8.39
2023-02-22T04:52:47.452Z,8.31
2023-02-22T04:58:10.630Z,8.12
2023-02-22T05:03:35.495Z,6.90
2023-02-22T05:08:58.710Z,8.25
2023-02-22T05:14:27.146Z,8.38
2023-02-22T05:19:51.542Z,7.53
2023-02-22T05:25:14.725Z,8.13
2023-02-22T05:30:41.249Z,8.32
2023-02-22T05:36:07.892Z,8.06
2023-02-22T05:41:30.928Z,7.13
2023-02-22T05:46:54.002Z,8.08
2023-02-22T05:52:18.504Z,7.82
2023-02-22T05:57:42.005Z,7.91
2023-02-22T06:10:37.168Z,8.00
2023-02-22T06:16:00.170Z,8.09
2023-02-22T06:21:23.167Z,8.02
2023-02-22T06:26:48.057Z,8.08
2023-02-22T06:32:11.367Z,8.27
2023-02-22T06:37:38.551Z,8.32
2023-02-22T06:43:02.824Z,8.15
2023-02-22T06:48:25.772Z,8.23
2023-02-22T06:53:48.776Z,8.18
2023-02-22T06:59:13.182Z,7.86
2023-02-22T07:04:37.251Z,8.33
2023-02-22T07:10:02.718Z,8.09
2023-02-22T07:15:29.123Z,8.23
2023-02-22T07:20:52.050Z,7.97
2023-02-22T07:26:15.300Z,8.38
2023-02-22T07:31:40.407Z,8.45
2023-02-22T07:37:04.977Z,8.45
2023-02-22T07:42:27.933Z,8.44
2023-02-22T07:47:52.604Z,8.58
2023-02-22T07:53:17.993Z,8.69
2023-02-22T07:58:41.009Z,8.24
2023-02-22T08:04:06.260Z,8.56
2023-02-22T08:09:29.198Z,8.60
2023-02-22T08:14:52.180Z,8.81
2023-02-22T08:20:17.001Z,8.85
2023-02-22T08:25:46.052Z,9.00
2023-02-22T08:31:09.472Z,8.29
2023-02-22T08:36:34.336Z,9.18
2023-02-22T08:41:57.294Z,9.17
2023-02-22T08:47:20.332Z,8.81
2023-02-22T08:52:44.729Z,9.50
2023-02-22T08:58:09.698Z,9.58
2023-02-22T09:03:33.082Z,9.68
2023-02-22T09:08:57.447Z,9.76
2023-02-22T09:14:20.522Z,9.72
2023-02-22T09:19:45.384Z,10.10
2023-02-22T09:25:16.604Z,10.07
2023-02-22T09:30:40.697Z,10.21
2023-02-22T09:36:03.687Z,10.16
2023-02-22T09:41:36.287Z,10.44
2023-02-22T09:46:59.754Z,10.52
2023-02-22T09:52:27.561Z,10.73
2023-02-22T09:57:55.348Z,10.89
2023-02-22T10:03:25.294Z,11.07
2023-02-22T10:08:50.745Z,10.87
2023-02-22T10:14:35.599Z,11.39
2023-02-22T10:20:11.028Z,11.51
2023-02-22T10:25:38.776Z,11.45
2023-02-22T10:31:08.160Z,11.61
2023-02-22T10:36:31.358Z,11.84
2023-02-22T10:41:57.976Z,11.95
2023-02-22T10:47:25.843Z,11.82
2023-02-22T10:52:48.953Z,11.93
2023-02-22T10:58:12.074Z,12.30
2023-02-22T11:03:36.525Z,12.41
2023-02-22T11:09:10.517Z,12.50
2023-02-22T11:14:33.891Z,12.62
2023-02-22T11:19:59.012Z,12.19
2023-02-22T11:25:26.012Z,12.92
2023-02-22T14:11:06.622Z,15.14
2023-02-22T14:16:33.779Z,14.21
2023-02-22T14:22:02.009Z,14.94
2023-02-22T14:27:39.619Z,15.23
2023-02-22T14:33:27.948Z,15.30
2023-02-22T14:38:56.266Z,15.12
2023-02-22T14:44:25.141Z,14.95
2023-02-22T14:49:55.250Z,14.51
2023-02-22T14:55:25.557Z,15.36
2023-02-22T15:00:59.703Z,14.71
2023-02-22T15:06:26.929Z,14.84
2023-02-22T15:12:25.963Z,12.87
2023-02-22T15:24:25.125Z,12.42
2023-02-22T15:29:49.689Z,13.90
2023-02-22T15:35:19.444Z,14.76
2023-02-22T15:40:43.243Z,14.75
2023-02-22T15:46:10.792Z,14.52
2023-02-22T15:51:46.335Z,12.60
2023-02-22T15:57:16.127Z,13.63
2023-02-22T16:02:51.107Z,13.80
2023-02-22T16:08:18.616Z,13.70
2023-02-22T16:13:43.475Z,14.13
2023-02-22T16:19:34.206Z,14.13
2023-02-22T16:25:16.438Z,14.06
2023-02-22T16:30:42.268Z,13.41
2023-02-22T16:36:25.836Z,13.10
2023-02-22T16:41:49.748Z,12.11
2023-02-22T16:47:14.802Z,13.52
2023-02-22T16:52:40.683Z,13.54
2023-02-22T16:58:09.965Z,13.22
2023-02-22T17:03:32.987Z,13.26
2023-02-22T17:15:47.345Z,12.50
2023-02-22T17:21:16.838Z,13.30
2023-02-22T17:26:39.789Z,13.00
2023-02-22T17:32:16.784Z,13.34
2023-02-22T17:37:55.142Z,12.49
2023-02-22T17:43:20.782Z,13.05
2023-02-22T17:48:49.214Z,13.07
2023-02-22T17:54:15.969Z,12.86
2023-02-22T17:59:40.695Z,13.12
2023-02-22T18:05:05.578Z,12.81
2023-02-22T18:10:28.682Z,12.39
2023-02-22T18:15:51.911Z,12.75
2023-02-22T18:21:16.330Z,12.05
2023-02-22T18:26:46.412Z,11.10
2023-02-22T18:32:13.497Z,10.59
2023-02-22T18:37:37.958Z,12.26
2023-02-22T18:43:01.025Z,12.09
2023-02-22T18:48:23.986Z,11.53
2023-02-22T18:53:50.074Z,11.90
2023-02-22T18:59:16.285Z,11.70
2023-02-22T19:04:39.567Z,12.05
2023-02-22T19:10:16.766Z,11.41
2023-02-22T19:15:45.478Z,12.24
2023-02-22T19:21:12.658Z,11.74
2023-02-22T19:26:39.624Z,10.61
2023-02-22T19:32:03.180Z,10.24
2023-02-22T19:37:26.908Z,10.96
2023-02-22T19:42:54.125Z,10.63
2023-02-22T19:48:17.649Z,11.22
2023-02-22T19:53:45.120Z,11.20
2023-02-22T19:59:18.628Z,10.10
2023-02-22T20:04:51.602Z,9.08
2023-02-22T20:10:57.463Z,8.62
2023-02-22T20:17:46.170Z,11.38
2023-02-22T20:23:14.864Z,10.15
2023-02-22T20:28:44.108Z,9.50
2023-02-22T20:34:10.345Z,8.56
2023-02-22T20:39:41.019Z,9.40
2023-02-22T20:45:12.194Z,11.35
2023-02-22T20:50:36.297Z,10.49
2023-02-22T20:56:13.118Z,10.46
2023-02-22T21:01:36.305Z,10.88
2023-02-22T21:07:01.069Z,9.28
2023-02-22T21:12:32.084Z,10.05
2023-02-22T21:17:55.971Z,10.43
2023-02-22T21:23:53.629Z,9.73
2023-02-22T21:29:54.518Z,7.82
2023-02-22T21:35:23.567Z,10.63
2023-02-22T21:40:58.818Z,9.55
2023-02-22T21:46:27.305Z,10.05
2023-02-22T21:52:09.974Z,10.86
2023-02-22T21:57:33.557Z,11.34
2023-02-22T22:03:05.041Z,11.48
2023-02-22T22:08:32.086Z,11.58
2023-02-22T22:13:59.581Z,11.55
2023-02-22T22:19:25.517Z,11.60
2023-02-22T22:25:17.713Z,10.25
2023-02-22T22:30:42.573Z,11.30
2023-02-22T22:36:06.856Z,11.10
2023-02-22T22:41:33.935Z,10.83
2023-02-22T22:47:20.369Z,9.20
2023-02-22T22:52:49.579Z,11.28
2023-02-22T22:58:29.462Z,9.72
2023-02-22T23:03:55.900Z,11.37
2023-02-22T23:09:24.352Z,8.73
2023-02-22T23:14:52.615Z,10.18
2023-02-22T23:20:23.194Z,10.85
2023-02-22T23:25:51.998Z,10.52
2023-02-22T23:31:25.493Z,8.68
2023-02-22T23:36:49.901Z,11.04
2023-02-22T23:42:21.695Z,10.41
2023-02-22T23:47:59.051Z,10.98
2023-02-22T23:53:25.948Z,10.86
2023-02-22T23:58:51.960Z,11.24
